sensor_id;sensor_type;location;lat;lon;timestamp;temperature;humidity
73688;SHT30;62257;48.376;-4.378;2022-08-30T00:00:42;19.19;73.69
73688;SHT30;62257;48.376;-4.378;2022-08-30T00:03:26;19.18;73.60
73688;SHT30;62257;48.376;-4.378;2022-08-30T00:05:53;19.18;73.80
73688;SHT30;62257;48.376;-4.378;2022-08-30T00:08:18;19.18;73.65
73688;SHT30;62257;48.376;-4.378;2022-08-30T00:10:44;19.13;73.76
73688;SHT30;62257;48.376;-4.378;2022-08-30T00:13:11;19.16;73.75
73688;SHT30;62257;48.376;-4.378;2022-08-30T00:15:37;19.16;75.13
73688;SHT30;62257;48.376;-4.378;2022-08-30T00:18:03;19.16;74.20
73688;SHT30;62257;48.376;-4.378;2022-08-30T00:20:31;19.10;73.98
73688;SHT30;62257;48.376;-4.378;2022-08-30T00:22:58;19.12;73.97
73688;SHT30;62257;48.376;-4.378;2022-08-30T00:25:24;19.09;74.14
73688;SHT30;62257;48.376;-4.378;2022-08-30T00:27:49;19.09;74.31
73688;SHT30;62257;48.376;-4.378;2022-08-30T00:30:16;19.08;75.58
73688;SHT30;62257;48.376;-4.378;2022-08-30T00:32:42;19.09;74.73
73688;SHT30;62257;48.376;-4.378;2022-08-30T00:35:09;19.08;74.85
73688;SHT30;62257;48.376;-4.378;2022-08-30T00:37:36;19.10;74.47
73688;SHT30;62257;48.376;-4.378;2022-08-30T00:40:03;19.12;75.75
73688;SHT30;62257;48.376;-4.378;2022-08-30T00:42:30;19.13;74.80
73688;SHT30;62257;48.376;-4.378;2022-08-30T00:44:56;19.16;74.19
73688;SHT30;62257;48.376;-4.378;2022-08-30T00:47:22;19.13;74.40
73688;SHT30;62257;48.376;-4.378;2022-08-30T00:49:51;19.19;74.69
73688;SHT30;62257;48.376;-4.378;2022-08-30T00:52:20;19.18;74.29
73688;SHT30;62257;48.376;-4.378;2022-08-30T00:54:49;19.18;74.63
73688;SHT30;62257;48.376;-4.378;2022-08-30T00:57:15;19.18;74.35
73688;SHT30;62257;48.376;-4.378;2022-08-30T00:59:43;19.20;74.45
73688;SHT30;62257;48.376;-4.378;2022-08-30T01:02:11;19.26;75.94
73688;SHT30;62257;48.376;-4.378;2022-08-30T01:04:39;19.30;75.48
73688;SHT30;62257;48.376;-4.378;2022-08-30T01:07:07;19.27;74.79
73688;SHT30;62257;48.376;-4.378;2022-08-30T01:09:33;19.27;75.36
73688;SHT30;62257;48.376;-4.378;2022-08-30T01:11:59;19.27;75.39
73688;SHT30;62257;48.376;-4.378;2022-08-30T01:14:25;19.26;75.36
73688;SHT30;62257;48.376;-4.378;2022-08-30T01:16:54;19.29;74.07
73688;SHT30;62257;48.376;-4.378;2022-08-30T01:19:30;19.26;74.42
73688;SHT30;62257;48.376;-4.378;2022-08-30T01:24:59;19.27;74.17
73688;SHT30;62257;48.376;-4.378;2022-08-30T01:27:27;19.23;75.16
73688;SHT30;62257;48.376;-4.378;2022-08-30T01:29:53;19.24;74.51
73688;SHT30;62257;48.376;-4.378;2022-08-30T01:32:25;19.27;74.58
73688;SHT30;62257;48.376;-4.378;2022-08-30T01:34:54;19.26;74.97
73688;SHT30;62257;48.376;-4.378;2022-08-30T01:37:30;19.29;75.03
73688;SHT30;62257;48.376;-4.378;2022-08-30T01:39:56;19.23;74.76
73688;SHT30;62257;48.376;-4.378;2022-08-30T01:42:22;19.23;75.47
73688;SHT30;62257;48.376;-4.378;2022-08-30T01:44:48;19.22;75.52
73688;SHT30;62257;48.376;-4.378;2022-08-30T01:47:15;19.22;75.16
73688;SHT30;62257;48.376;-4.378;2022-08-30T01:49:43;19.20;74.83
73688;SHT30;62257;48.376;-4.378;2022-08-30T01:52:09;19.19;76.24
73688;SHT30;62257;48.376;-4.378;2022-08-30T01:54:38;19.20;75.48
73688;SHT30;62257;48.376;-4.378;2022-08-30T01:57:05;19.23;75.58
73688;SHT30;62257;48.376;-4.378;2022-08-30T01:59:30;19.29;74.99
73688;SHT30;62257;48.376;-4.378;2022-08-30T02:01:56;19.23;74.63
73688;SHT30;62257;48.376;-4.378;2022-08-30T02:04:22;19.26;75.34
73688;SHT30;62257;48.376;-4.378;2022-08-30T02:06:47;19.26;74.73
73688;SHT30;62257;48.376;-4.378;2022-08-30T02:09:13;19.23;74.96
73688;SHT30;62257;48.376;-4.378;2022-08-30T02:11:39;19.22;74.77
73688;SHT30;62257;48.376;-4.378;2022-08-30T02:14:05;19.23;75.05
73688;SHT30;62257;48.376;-4.378;2022-08-30T02:16:31;19.23;76.12
73688;SHT30;62257;48.376;-4.378;2022-08-30T02:18:57;19.24;75.15
73688;SHT30;62257;48.376;-4.378;2022-08-30T02:21:24;19.20;74.69
73688;SHT30;62257;48.376;-4.378;2022-08-30T02:23:50;19.22;76.18
73688;SHT30;62257;48.376;-4.378;2022-08-30T02:26:16;19.19;74.83
73688;SHT30;62257;48.376;-4.378;2022-08-30T02:28:42;19.13;75.03
73688;SHT30;62257;48.376;-4.378;2022-08-30T02:31:08;19.15;74.97
73688;SHT30;62257;48.376;-4.378;2022-08-30T02:33:34;19.12;75.51
73688;SHT30;62257;48.376;-4.378;2022-08-30T02:35:59;19.12;76.12
73688;SHT30;62257;48.376;-4.378;2022-08-30T02:38:24;19.06;75.29
73688;SHT30;62257;48.376;-4.378;2022-08-30T02:40:50;19.08;75.18
73688;SHT30;62257;48.376;-4.378;2022-08-30T02:43:16;19.05;75.29
73688;SHT30;62257;48.376;-4.378;2022-08-30T02:45:41;19.05;75.80
73688;SHT30;62257;48.376;-4.378;2022-08-30T02:48:07;19.08;75.23
73688;SHT30;62257;48.376;-4.378;2022-08-30T02:50:33;19.10;76.21
73688;SHT30;62257;48.376;-4.378;2022-08-30T02:52:59;19.06;75.07
73688;SHT30;62257;48.376;-4.378;2022-08-30T02:55:24;19.10;75.08
73688;SHT30;62257;48.376;-4.378;2022-08-30T02:57:50;19.12;76.46
73688;SHT30;62257;48.376;-4.378;2022-08-30T03:00:19;19.09;75.03
73688;SHT30;62257;48.376;-4.378;2022-08-30T03:02:45;19.10;74.90
73688;SHT30;62257;48.376;-4.378;2022-08-30T03:05:12;19.16;76.39
73688;SHT30;62257;48.376;-4.378;2022-08-30T03:07:39;19.18;76.21
73688;SHT30;62257;48.376;-4.378;2022-08-30T03:10:05;19.13;75.23
73688;SHT30;62257;48.376;-4.378;2022-08-30T03:12:31;19.15;75.19
73688;SHT30;62257;48.376;-4.378;2022-08-30T03:14:57;19.13;75.57
73688;SHT30;62257;48.376;-4.378;2022-08-30T03:17:23;19.12;75.43
73688;SHT30;62257;48.376;-4.378;2022-08-30T03:19:48;19.10;76.14
73688;SHT30;62257;48.376;-4.378;2022-08-30T03:22:14;19.08;74.81
73688;SHT30;62257;48.376;-4.378;2022-08-30T03:24:39;19.06;75.89
73688;SHT30;62257;48.376;-4.378;2022-08-30T03:27:05;19.05;75.23
73688;SHT30;62257;48.376;-4.378;2022-08-30T03:29:32;19.01;75.05
73688;SHT30;62257;48.376;-4.378;2022-08-30T03:31:57;19.01;75.01
73688;SHT30;62257;48.376;-4.378;2022-08-30T03:34:24;19.02;75.34
73688;SHT30;62257;48.376;-4.378;2022-08-30T03:36:51;18.98;75.52
73688;SHT30;62257;48.376;-4.378;2022-08-30T03:39:17;18.95;76.23
73688;SHT30;62257;48.376;-4.378;2022-08-30T03:41:42;18.96;75.33
73688;SHT30;62257;48.376;-4.378;2022-08-30T03:44:08;18.91;75.94
73688;SHT30;62257;48.376;-4.378;2022-08-30T03:46:33;18.89;76.25
73688;SHT30;62257;48.376;-4.378;2022-08-30T03:48:59;18.89;75.80
73688;SHT30;62257;48.376;-4.378;2022-08-30T03:51:24;18.84;76.19
73688;SHT30;62257;48.376;-4.378;2022-08-30T03:53:50;18.84;76.05
73688;SHT30;62257;48.376;-4.378;2022-08-30T03:56:17;18.82;75.98
73688;SHT30;62257;48.376;-4.378;2022-08-30T03:58:43;18.78;76.92
73688;SHT30;62257;48.376;-4.378;2022-08-30T04:01:08;18.81;76.59
73688;SHT30;62257;48.376;-4.378;2022-08-30T04:03:34;18.79;76.49
73688;SHT30;62257;48.376;-4.378;2022-08-30T04:06:00;18.78;76.46
73688;SHT30;62257;48.376;-4.378;2022-08-30T04:08:26;18.76;76.56
73688;SHT30;62257;48.376;-4.378;2022-08-30T04:10:52;18.75;76.70
73688;SHT30;62257;48.376;-4.378;2022-08-30T04:13:19;18.72;77.48
73688;SHT30;62257;48.376;-4.378;2022-08-30T04:15:45;18.68;77.14
73688;SHT30;62257;48.376;-4.378;2022-08-30T04:18:11;18.63;76.93
73688;SHT30;62257;48.376;-4.378;2022-08-30T04:20:36;18.60;77.15
73688;SHT30;62257;48.376;-4.378;2022-08-30T04:23:03;18.55;77.31
73688;SHT30;62257;48.376;-4.378;2022-08-30T04:25:32;18.53;77.31
73688;SHT30;62257;48.376;-4.378;2022-08-30T04:27:57;18.50;77.54
73688;SHT30;62257;48.376;-4.378;2022-08-30T04:30:22;18.48;77.70
73688;SHT30;62257;48.376;-4.378;2022-08-30T04:32:48;18.47;77.90
73688;SHT30;62257;48.376;-4.378;2022-08-30T04:35:13;18.44;78.20
73688;SHT30;62257;48.376;-4.378;2022-08-30T04:37:39;18.38;78.20
73688;SHT30;62257;48.376;-4.378;2022-08-30T04:40:05;18.40;78.68
73688;SHT30;62257;48.376;-4.378;2022-08-30T04:42:33;18.36;78.50
73688;SHT30;62257;48.376;-4.378;2022-08-30T04:45:02;18.33;78.61
73688;SHT30;62257;48.376;-4.378;2022-08-30T04:47:28;18.29;78.82
73688;SHT30;62257;48.376;-4.378;2022-08-30T04:49:53;18.25;79.05
73688;SHT30;62257;48.376;-4.378;2022-08-30T04:52:19;18.27;79.35
73688;SHT30;62257;48.376;-4.378;2022-08-30T04:54:44;18.22;79.55
73688;SHT30;62257;48.376;-4.378;2022-08-30T04:57:10;18.22;79.68
73688;SHT30;62257;48.376;-4.378;2022-08-30T04:59:37;18.17;79.58
73688;SHT30;62257;48.376;-4.378;2022-08-30T05:02:02;18.16;79.78
73688;SHT30;62257;48.376;-4.378;2022-08-30T05:04:28;18.13;80.10
73688;SHT30;62257;48.376;-4.378;2022-08-30T05:06:53;18.10;80.15
73688;SHT30;62257;48.376;-4.378;2022-08-30T05:09:19;18.12;80.32
73688;SHT30;62257;48.376;-4.378;2022-08-30T05:11:45;18.12;80.39
73688;SHT30;62257;48.376;-4.378;2022-08-30T05:14:11;18.12;80.24
73688;SHT30;62257;48.376;-4.378;2022-08-30T05:16:37;18.07;80.27
73688;SHT30;62257;48.376;-4.378;2022-08-30T05:19:02;18.07;80.62
73688;SHT30;62257;48.376;-4.378;2022-08-30T05:21:28;18.10;80.39
73688;SHT30;62257;48.376;-4.378;2022-08-30T05:23:58;18.07;80.48
73688;SHT30;62257;48.376;-4.378;2022-08-30T05:26:31;18.09;80.59
73688;SHT30;62257;48.376;-4.378;2022-08-30T05:28:57;18.05;81.01
73688;SHT30;62257;48.376;-4.378;2022-08-30T05:31:30;18.06;80.68
73688;SHT30;62257;48.376;-4.378;2022-08-30T05:33:56;18.07;80.83
73688;SHT30;62257;48.376;-4.378;2022-08-30T05:36:24;18.07;80.86
73688;SHT30;62257;48.376;-4.378;2022-08-30T05:38:51;18.07;80.75
73688;SHT30;62257;48.376;-4.378;2022-08-30T05:41:18;18.09;80.90
73688;SHT30;62257;48.376;-4.378;2022-08-30T05:43:44;18.06;80.86
73688;SHT30;62257;48.376;-4.378;2022-08-30T05:46:12;18.05;81.19
73688;SHT30;62257;48.376;-4.378;2022-08-30T05:48:39;18.09;81.28
73688;SHT30;62257;48.376;-4.378;2022-08-30T05:51:11;18.10;80.98
73688;SHT30;62257;48.376;-4.378;2022-08-30T05:53:38;18.14;81.17
73688;SHT30;62257;48.376;-4.378;2022-08-30T05:56:06;18.13;81.28
73688;SHT30;62257;48.376;-4.378;2022-08-30T05:58:32;18.13;81.30
73688;SHT30;62257;48.376;-4.378;2022-08-30T06:00:57;18.14;81.42
73688;SHT30;62257;48.376;-4.378;2022-08-30T06:03:23;18.16;81.32
73688;SHT30;62257;48.376;-4.378;2022-08-30T06:05:48;18.20;81.23
73688;SHT30;62257;48.376;-4.378;2022-08-30T06:08:14;18.22;81.64
73688;SHT30;62257;48.376;-4.378;2022-08-30T06:10:39;18.27;81.56
73688;SHT30;62257;48.376;-4.378;2022-08-30T06:13:05;18.26;81.21
73688;SHT30;62257;48.376;-4.378;2022-08-30T06:15:30;18.27;81.07
73688;SHT30;62257;48.376;-4.378;2022-08-30T06:17:55;18.34;81.13
73688;SHT30;62257;48.376;-4.378;2022-08-30T06:20:21;18.34;81.11
73688;SHT30;62257;48.376;-4.378;2022-08-30T06:22:46;18.38;81.28
73688;SHT30;62257;48.376;-4.378;2022-08-30T06:25:12;18.41;80.93
73688;SHT30;62257;48.376;-4.378;2022-08-30T06:27:38;18.43;81.04
73688;SHT30;62257;48.376;-4.378;2022-08-30T06:30:05;18.47;81.06
73688;SHT30;62257;48.376;-4.378;2022-08-30T06:32:36;18.53;80.83
73688;SHT30;62257;48.376;-4.378;2022-08-30T06:35:02;18.50;80.77
73688;SHT30;62257;48.376;-4.378;2022-08-30T06:37:27;18.55;80.78
73688;SHT30;62257;48.376;-4.378;2022-08-30T06:39:52;18.63;80.59
73688;SHT30;62257;48.376;-4.378;2022-08-30T06:42:18;18.65;80.96
73688;SHT30;62257;48.376;-4.378;2022-08-30T06:44:43;18.69;80.39
73688;SHT30;62257;48.376;-4.378;2022-08-30T06:47:10;18.78;80.45
73688;SHT30;62257;48.376;-4.378;2022-08-30T06:49:35;18.82;79.87
73688;SHT30;62257;48.376;-4.378;2022-08-30T06:52:01;18.92;79.97
73688;SHT30;62257;48.376;-4.378;2022-08-30T06:54:26;19.02;79.72
73688;SHT30;62257;48.376;-4.378;2022-08-30T06:56:52;19.06;79.10
73688;SHT30;62257;48.376;-4.378;2022-08-30T06:59:17;19.15;79.60
73688;SHT30;62257;48.376;-4.378;2022-08-30T07:01:43;19.20;79.00
73688;SHT30;62257;48.376;-4.378;2022-08-30T07:04:08;19.30;78.64
73688;SHT30;62257;48.376;-4.378;2022-08-30T07:06:34;19.40;79.24
73688;SHT30;62257;48.376;-4.378;2022-08-30T07:08:59;19.53;78.29
73688;SHT30;62257;48.376;-4.378;2022-08-30T07:11:33;19.60;77.99
73688;SHT30;62257;48.376;-4.378;2022-08-30T07:13:59;19.71;77.40
73688;SHT30;62257;48.376;-4.378;2022-08-30T07:16:25;19.78;77.21
73688;SHT30;62257;48.376;-4.378;2022-08-30T07:18:50;19.88;77.62
73688;SHT30;62257;48.376;-4.378;2022-08-30T07:21:22;19.92;76.96
73688;SHT30;62257;48.376;-4.378;2022-08-30T07:23:50;20.01;76.42
73688;SHT30;62257;48.376;-4.378;2022-08-30T07:26:19;20.16;76.29
73688;SHT30;62257;48.376;-4.378;2022-08-30T07:28:45;20.26;76.14
73688;SHT30;62257;48.376;-4.378;2022-08-30T07:31:13;20.30;75.39
73688;SHT30;62257;48.376;-4.378;2022-08-30T07:33:39;20.37;75.14
73688;SHT30;62257;48.376;-4.378;2022-08-30T07:36:05;20.47;76.08
73688;SHT30;62257;48.376;-4.378;2022-08-30T07:38:31;20.53;74.47
73688;SHT30;62257;48.376;-4.378;2022-08-30T07:40:57;20.59;74.44
73688;SHT30;62257;48.376;-4.378;2022-08-30T07:43:28;20.64;74.51
73688;SHT30;62257;48.376;-4.378;2022-08-30T07:45:54;20.74;74.82
73688;SHT30;62257;48.376;-4.378;2022-08-30T07:48:21;20.80;73.77
73688;SHT30;62257;48.376;-4.378;2022-08-30T07:50:46;20.85;73.43
73688;SHT30;62257;48.376;-4.378;2022-08-30T07:53:12;21.01;74.21
73688;SHT30;62257;48.376;-4.378;2022-08-30T07:55:38;21.24;74.16
73688;SHT30;62257;48.376;-4.378;2022-08-30T07:58:04;21.62;73.00
73688;SHT30;62257;48.376;-4.378;2022-08-30T08:00:29;22.28;69.91
73688;SHT30;62257;48.376;-4.378;2022-08-30T08:02:54;22.53;68.60
73688;SHT30;62257;48.376;-4.378;2022-08-30T08:05:20;22.66;68.60
73688;SHT30;62257;48.376;-4.378;2022-08-30T08:07:45;22.82;68.80
73688;SHT30;62257;48.376;-4.378;2022-08-30T08:10:11;22.84;67.66
73688;SHT30;62257;48.376;-4.378;2022-08-30T08:12:38;23.04;67.63
73688;SHT30;62257;48.376;-4.378;2022-08-30T08:15:03;23.17;67.01
73688;SHT30;62257;48.376;-4.378;2022-08-30T08:17:29;23.02;65.91
73688;SHT30;62257;48.376;-4.378;2022-08-30T08:19:54;23.03;66.46
73688;SHT30;62257;48.376;-4.378;2022-08-30T08:22:20;23.06;66.11
73688;SHT30;62257;48.376;-4.378;2022-08-30T08:24:45;23.11;67.72
73688;SHT30;62257;48.376;-4.378;2022-08-30T08:27:11;23.06;66.37
73688;SHT30;62257;48.376;-4.378;2022-08-30T08:29:36;23.06;66.77
73688;SHT30;62257;48.376;-4.378;2022-08-30T08:32:02;23.03;67.54
73688;SHT30;62257;48.376;-4.378;2022-08-30T08:34:29;23.00;68.13
73688;SHT30;62257;48.376;-4.378;2022-08-30T08:36:54;22.89;67.80
73688;SHT30;62257;48.376;-4.378;2022-08-30T08:39:19;22.83;66.85
73688;SHT30;62257;48.376;-4.378;2022-08-30T08:42:19;22.72;68.00
73688;SHT30;62257;48.376;-4.378;2022-08-30T08:45:12;22.67;69.02
73688;SHT30;62257;48.376;-4.378;2022-08-30T08:47:59;22.66;67.95
73688;SHT30;62257;48.376;-4.378;2022-08-30T08:50:26;22.67;68.56
73688;SHT30;62257;48.376;-4.378;2022-08-30T08:52:55;22.65;69.88
73688;SHT30;62257;48.376;-4.378;2022-08-30T08:55:49;22.62;69.06
73688;SHT30;62257;48.376;-4.378;2022-08-30T08:58:28;22.59;67.97
73688;SHT30;62257;48.376;-4.378;2022-08-30T09:00:55;22.53;69.45
73688;SHT30;62257;48.376;-4.378;2022-08-30T09:03:24;22.48;69.68
73688;SHT30;62257;48.376;-4.378;2022-08-30T09:05:51;22.42;70.55
73688;SHT30;62257;48.376;-4.378;2022-08-30T09:08:18;22.41;70.18
73688;SHT30;62257;48.376;-4.378;2022-08-30T09:10:52;22.31;69.69
73688;SHT30;62257;48.376;-4.378;2022-08-30T09:13:19;22.22;69.25
73688;SHT30;62257;48.376;-4.378;2022-08-30T09:15:45;22.18;69.64
73688;SHT30;62257;48.376;-4.378;2022-08-30T09:18:11;22.15;69.82
73688;SHT30;62257;48.376;-4.378;2022-08-30T09:20:42;22.12;70.20
73688;SHT30;62257;48.376;-4.378;2022-08-30T09:25:59;22.08;69.97
73688;SHT30;62257;48.376;-4.378;2022-08-30T09:28:31;22.11;69.94
73688;SHT30;62257;48.376;-4.378;2022-08-30T09:31:15;22.08;70.28
73688;SHT30;62257;48.376;-4.378;2022-08-30T09:34:03;22.05;70.41
73688;SHT30;62257;48.376;-4.378;2022-08-30T09:36:38;22.05;70.06
73688;SHT30;62257;48.376;-4.378;2022-08-30T09:39:12;22.04;71.36
73688;SHT30;62257;48.376;-4.378;2022-08-30T09:41:44;22.07;71.11
73688;SHT30;62257;48.376;-4.378;2022-08-30T09:44:16;22.08;69.90
73688;SHT30;62257;48.376;-4.378;2022-08-30T09:49:28;22.11;70.72
73688;SHT30;62257;48.376;-4.378;2022-08-30T09:52:05;22.18;70.01
73688;SHT30;62257;48.376;-4.378;2022-08-30T09:54:40;22.19;69.96
73688;SHT30;62257;48.376;-4.378;2022-08-30T10:05:04;22.18;69.89
73688;SHT30;62257;48.376;-4.378;2022-08-30T10:07:43;22.21;69.57
73688;SHT30;62257;48.376;-4.378;2022-08-30T10:13:01;22.21;70.21
73688;SHT30;62257;48.376;-4.378;2022-08-30T10:15:49;22.19;72.32
73688;SHT30;62257;48.376;-4.378;2022-08-30T10:18:49;22.14;71.58
73688;SHT30;62257;48.376;-4.378;2022-08-30T10:23:44;22.00;74.98
73688;SHT30;62257;48.376;-4.378;2022-08-30T10:29:29;21.94;78.18
73688;SHT30;62257;48.376;-4.378;2022-08-30T10:32:03;21.84;81.73
73688;SHT30;62257;48.376;-4.378;2022-08-30T10:34:38;21.77;78.29
73688;SHT30;62257;48.376;-4.378;2022-08-30T10:37:15;21.73;75.67
73688;SHT30;62257;48.376;-4.378;2022-08-30T10:39:45;21.74;80.65
73688;SHT30;62257;48.376;-4.378;2022-08-30T10:42:17;21.72;78.08
73688;SHT30;62257;48.376;-4.378;2022-08-30T10:44:48;21.76;77.16
73688;SHT30;62257;48.376;-4.378;2022-08-30T10:50:16;21.93;76.08
73688;SHT30;62257;48.376;-4.378;2022-08-30T10:55:20;22.25;76.59
73688;SHT30;62257;48.376;-4.378;2022-08-30T10:57:49;22.42;75.46
73688;SHT30;62257;48.376;-4.378;2022-08-30T11:00:23;22.66;73.36
73688;SHT30;62257;48.376;-4.378;2022-08-30T11:13:30;23.83;69.14
73688;SHT30;62257;48.376;-4.378;2022-08-30T11:16:08;24.12;69.05
73688;SHT30;62257;48.376;-4.378;2022-08-30T11:18:43;24.41;66.08
73688;SHT30;62257;48.376;-4.378;2022-08-30T11:21:39;24.73;63.88
73688;SHT30;62257;48.376;-4.378;2022-08-30T11:24:11;25.07;62.01
73688;SHT30;62257;48.376;-4.378;2022-08-30T11:29:51;25.68;61.40
73688;SHT30;62257;48.376;-4.378;2022-08-30T11:32:25;25.95;62.98
73688;SHT30;62257;48.376;-4.378;2022-08-30T11:35:09;26.12;58.82
73688;SHT30;62257;48.376;-4.378;2022-08-30T11:42:53;26.49;58.67
73688;SHT30;62257;48.376;-4.378;2022-08-30T12:09:03;26.67;57.25
73688;SHT30;62257;48.376;-4.378;2022-08-30T12:13:57;26.73;59.35
73688;SHT30;62257;48.376;-4.378;2022-08-30T12:16:44;26.65;59.06
73688;SHT30;62257;48.376;-4.378;2022-08-30T12:19:31;26.61;58.97
73688;SHT30;62257;48.376;-4.378;2022-08-30T12:22:03;26.63;60.38
73688;SHT30;62257;48.376;-4.378;2022-08-30T12:24:40;26.53;59.71
73688;SHT30;62257;48.376;-4.378;2022-08-30T12:27:28;26.40;60.15
73688;SHT30;62257;48.376;-4.378;2022-08-30T12:29:56;26.37;60.86
73688;SHT30;62257;48.376;-4.378;2022-08-30T12:32:24;26.29;58.85
73688;SHT30;62257;48.376;-4.378;2022-08-30T12:34:53;26.18;59.63
73688;SHT30;62257;48.376;-4.378;2022-08-30T12:37:33;26.09;59.91
73688;SHT30;62257;48.376;-4.378;2022-08-30T12:40:17;25.96;61.82
73688;SHT30;62257;48.376;-4.378;2022-08-30T12:42:58;25.81;60.79
73688;SHT30;62257;48.376;-4.378;2022-08-30T12:45:27;25.75;61.44
73688;SHT30;62257;48.376;-4.378;2022-08-30T12:48:06;25.63;62.40
73688;SHT30;62257;48.376;-4.378;2022-08-30T12:50:42;25.57;63.31
73688;SHT30;62257;48.376;-4.378;2022-08-30T12:53:12;25.54;62.48
73688;SHT30;62257;48.376;-4.378;2022-08-30T13:04:26;25.33;62.64
73688;SHT30;62257;48.376;-4.378;2022-08-30T13:06:56;25.24;63.76
73688;SHT30;62257;48.376;-4.378;2022-08-30T13:09:29;25.20;64.02
73688;SHT30;62257;48.376;-4.378;2022-08-30T13:11:56;25.09;64.06
73688;SHT30;62257;48.376;-4.378;2022-08-30T13:14:32;25.02;64.57
73688;SHT30;62257;48.376;-4.378;2022-08-30T13:17:11;24.92;63.65
73688;SHT30;62257;48.376;-4.378;2022-08-30T13:19:42;24.83;64.67
73688;SHT30;62257;48.376;-4.378;2022-08-30T13:22:31;24.73;64.23
73688;SHT30;62257;48.376;-4.378;2022-08-30T13:24:57;24.72;65.13
73688;SHT30;62257;48.376;-4.378;2022-08-30T13:27:24;24.69;65.47
73688;SHT30;62257;48.376;-4.378;2022-08-30T13:29:50;24.78;65.17
73688;SHT30;62257;48.376;-4.378;2022-08-30T13:32:15;24.79;65.95
73688;SHT30;62257;48.376;-4.378;2022-08-30T13:34:41;24.82;65.86
73688;SHT30;62257;48.376;-4.378;2022-08-30T13:37:19;24.85;65.85
73688;SHT30;62257;48.376;-4.378;2022-08-30T13:39:46;24.85;64.63
73688;SHT30;62257;48.376;-4.378;2022-08-30T13:42:11;24.82;63.95
73688;SHT30;62257;48.376;-4.378;2022-08-30T13:44:36;24.85;65.40
73688;SHT30;62257;48.376;-4.378;2022-08-30T13:47:03;24.85;65.22
73688;SHT30;62257;48.376;-4.378;2022-08-30T13:49:32;24.78;64.74
73688;SHT30;62257;48.376;-4.378;2022-08-30T13:52:03;24.79;64.80
73688;SHT30;62257;48.376;-4.378;2022-08-30T13:54:29;24.78;64.52
73688;SHT30;62257;48.376;-4.378;2022-08-30T13:56:55;24.79;65.92
73688;SHT30;62257;48.376;-4.378;2022-08-30T13:59:21;24.79;65.55
73688;SHT30;62257;48.376;-4.378;2022-08-30T14:01:49;24.79;65.62
73688;SHT30;62257;48.376;-4.378;2022-08-30T14:04:14;24.81;64.85
73688;SHT30;62257;48.376;-4.378;2022-08-30T14:06:41;24.82;65.48
73688;SHT30;62257;48.376;-4.378;2022-08-30T14:09:06;24.82;66.18
73688;SHT30;62257;48.376;-4.378;2022-08-30T14:11:33;24.86;65.94
73688;SHT30;62257;48.376;-4.378;2022-08-30T14:13:59;24.88;64.32
73688;SHT30;62257;48.376;-4.378;2022-08-30T14:16:25;24.88;64.31
73688;SHT30;62257;48.376;-4.378;2022-08-30T14:18:51;24.86;65.07
73688;SHT30;62257;48.376;-4.378;2022-08-30T14:21:16;24.90;65.42
73688;SHT30;62257;48.376;-4.378;2022-08-30T14:23:42;24.96;65.20
73688;SHT30;62257;48.376;-4.378;2022-08-30T14:26:19;24.98;64.98
73688;SHT30;62257;48.376;-4.378;2022-08-30T14:28:45;24.99;64.27
73688;SHT30;62257;48.376;-4.378;2022-08-30T14:31:11;25.03;64.65
73688;SHT30;62257;48.376;-4.378;2022-08-30T14:33:37;25.02;65.89
73688;SHT30;62257;48.376;-4.378;2022-08-30T14:36:03;24.98;65.04
73688;SHT30;62257;48.376;-4.378;2022-08-30T14:38:29;24.93;64.31
73688;SHT30;62257;48.376;-4.378;2022-08-30T14:40:54;24.90;65.66
73688;SHT30;62257;48.376;-4.378;2022-08-30T14:43:20;24.89;64.98
73688;SHT30;62257;48.376;-4.378;2022-08-30T14:45:45;24.83;65.19
73688;SHT30;62257;48.376;-4.378;2022-08-30T14:48:11;24.89;65.49
73688;SHT30;62257;48.376;-4.378;2022-08-30T14:50:37;24.89;64.73
73688;SHT30;62257;48.376;-4.378;2022-08-30T14:53:04;24.98;65.26
73688;SHT30;62257;48.376;-4.378;2022-08-30T14:55:29;25.02;65.73
73688;SHT30;62257;48.376;-4.378;2022-08-30T14:57:56;25.10;64.75
73688;SHT30;62257;48.376;-4.378;2022-08-30T15:00:22;25.10;64.48
73688;SHT30;62257;48.376;-4.378;2022-08-30T15:02:48;25.12;64.35
73688;SHT30;62257;48.376;-4.378;2022-08-30T15:05:14;25.16;65.68
73688;SHT30;62257;48.376;-4.378;2022-08-30T15:07:40;25.26;65.41
73688;SHT30;62257;48.376;-4.378;2022-08-30T15:10:06;25.22;64.49
73688;SHT30;62257;48.376;-4.378;2022-08-30T15:12:32;25.20;63.88
73688;SHT30;62257;48.376;-4.378;2022-08-30T15:14:57;25.22;63.74
73688;SHT30;62257;48.376;-4.378;2022-08-30T15:17:23;25.19;63.96
73688;SHT30;62257;48.376;-4.378;2022-08-30T15:19:49;25.24;65.51
73688;SHT30;62257;48.376;-4.378;2022-08-30T15:22:15;25.24;63.49
73688;SHT30;62257;48.376;-4.378;2022-08-30T15:24:41;25.22;63.80
73688;SHT30;62257;48.376;-4.378;2022-08-30T15:27:08;25.20;63.74
73688;SHT30;62257;48.376;-4.378;2022-08-30T15:29:33;25.17;64.72
73688;SHT30;62257;48.376;-4.378;2022-08-30T15:32:00;25.19;63.91
73688;SHT30;62257;48.376;-4.378;2022-08-30T15:34:26;25.17;64.86
73688;SHT30;62257;48.376;-4.378;2022-08-30T15:36:52;25.19;64.12
73688;SHT30;62257;48.376;-4.378;2022-08-30T15:39:18;25.17;63.95
73688;SHT30;62257;48.376;-4.378;2022-08-30T15:41:45;25.16;64.34
73688;SHT30;62257;48.376;-4.378;2022-08-30T15:44:11;25.15;64.33
73688;SHT30;62257;48.376;-4.378;2022-08-30T15:46:39;25.16;63.62
73688;SHT30;62257;48.376;-4.378;2022-08-30T15:49:20;25.12;64.13
73688;SHT30;62257;48.376;-4.378;2022-08-30T15:51:47;25.20;65.12
73688;SHT30;62257;48.376;-4.378;2022-08-30T15:54:15;25.22;64.59
73688;SHT30;62257;48.376;-4.378;2022-08-30T15:56:41;25.20;63.80
73688;SHT30;62257;48.376;-4.378;2022-08-30T15:59:07;25.16;63.70
73688;SHT30;62257;48.376;-4.378;2022-08-30T16:01:33;25.16;64.56
73688;SHT30;62257;48.376;-4.378;2022-08-30T16:03:58;25.16;64.86
73688;SHT30;62257;48.376;-4.378;2022-08-30T16:06:28;25.23;63.69
73688;SHT30;62257;48.376;-4.378;2022-08-30T16:08:54;25.27;63.94
73688;SHT30;62257;48.376;-4.378;2022-08-30T16:11:21;25.28;64.70
73688;SHT30;62257;48.376;-4.378;2022-08-30T16:13:47;25.31;64.65
73688;SHT30;62257;48.376;-4.378;2022-08-30T16:16:14;25.40;63.64
73688;SHT30;62257;48.376;-4.378;2022-08-30T16:18:40;25.37;64.59
73688;SHT30;62257;48.376;-4.378;2022-08-30T16:21:12;25.41;63.16
73688;SHT30;62257;48.376;-4.378;2022-08-30T16:23:40;25.55;63.94
73688;SHT30;62257;48.376;-4.378;2022-08-30T16:26:07;25.50;63.83
73688;SHT30;62257;48.376;-4.378;2022-08-30T16:28:33;25.57;64.46
73688;SHT30;62257;48.376;-4.378;2022-08-30T16:30:59;25.63;62.82
73688;SHT30;62257;48.376;-4.378;2022-08-30T16:33:25;25.70;63.89
73688;SHT30;62257;48.376;-4.378;2022-08-30T16:35:52;25.77;62.43
73688;SHT30;62257;48.376;-4.378;2022-08-30T16:38:18;25.85;62.65
73688;SHT30;62257;48.376;-4.378;2022-08-30T16:40:43;25.82;63.10
73688;SHT30;62257;48.376;-4.378;2022-08-30T16:43:09;25.72;63.04
73688;SHT30;62257;48.376;-4.378;2022-08-30T16:45:38;25.72;63.26